createdAt,value
2019-03-31T00:01:54.070Z,26.13
2019-03-31T00:04:25.271Z,26.00
2019-03-31T00:06:56.619Z,24.90
2019-03-31T00:09:27.872Z,25.87
2019-03-31T00:11:59.199Z,24.33
2019-03-31T00:14:30.556Z,27.97
2019-03-31T00:17:01.803Z,26.63
2019-03-31T00:19:36.119Z,29.77
2019-03-31T00:22:07.365Z,28.63
2019-03-31T00:24:38.701Z,26.17
2019-03-31T00:27:10.034Z,27.90
2019-03-31T00:29:41.344Z,27.57
2019-03-31T00:32:12.566Z,27.83
2019-03-31T00:34:43.867Z,27.90
2019-03-31T00:37:15.087Z,26.23
2019-03-31T00:39:46.290Z,25.40
2019-03-31T00:42:17.587Z,36.03
2019-03-31T00:44:48.912Z,28.17
2019-03-31T00:47:20.209Z,30.70
2019-03-31T00:49:51.436Z,30.83
2019-03-31T00:52:22.745Z,32.83
2019-03-31T00:54:54.084Z,27.07
2019-03-31T00:57:25.395Z,29.70
2019-03-31T00:59:56.674Z,29.50
2019-03-31T01:02:30.401Z,31.37
2019-03-31T01:05:01.664Z,29.77
2019-03-31T01:07:33.051Z,26.97
2019-03-31T01:10:05.170Z,32.20
2019-03-31T01:12:36.667Z,32.40
2019-03-31T01:15:14.274Z,31.37
2019-03-31T01:17:45.470Z,28.77
2019-03-31T01:20:16.760Z,28.43
2019-03-31T01:22:48.062Z,30.30
2019-03-31T01:25:20.058Z,33.23
2019-03-31T01:27:51.275Z,29.77
2019-03-31T01:30:23.040Z,31.30
2019-03-31T01:32:54.482Z,32.57
2019-03-31T01:35:26.027Z,32.50
2019-03-31T01:37:57.550Z,34.20
2019-03-31T01:40:28.766Z,29.20
2019-03-31T01:42:59.983Z,33.10
2019-03-31T01:45:31.291Z,34.73
2019-03-31T01:48:02.516Z,34.60
2019-03-31T01:50:33.772Z,29.43
2019-03-31T01:53:05.008Z,32.60
2019-03-31T01:55:36.346Z,31.37
2019-03-31T01:58:07.671Z,29.13
2019-03-31T02:00:42.068Z,25.67
2019-03-31T02:03:13.394Z,29.80
2019-03-31T02:05:44.681Z,30.47
2019-03-31T02:08:15.957Z,28.60
2019-03-31T02:10:47.304Z,31.40
2019-03-31T02:13:18.634Z,24.43
2019-03-31T02:15:49.956Z,28.27
2019-03-31T02:18:21.244Z,31.03
2019-03-31T02:20:52.550Z,29.00
2019-03-31T02:23:23.785Z,37.60
2019-03-31T02:25:55.092Z,29.33
2019-03-31T02:28:26.399Z,32.77
2019-03-31T02:30:57.691Z,32.30
2019-03-31T02:33:28.958Z,35.83
2019-03-31T02:36:00.289Z,33.50
2019-03-31T02:38:31.532Z,35.07
2019-03-31T02:41:02.842Z,33.17
2019-03-31T02:43:34.118Z,33.93
2019-03-31T02:46:06.356Z,31.43
2019-03-31T02:48:37.652Z,30.20
2019-03-31T02:51:09.730Z,36.90
2019-03-31T02:53:40.913Z,33.87
2019-03-31T02:56:14.922Z,35.13
2019-03-31T02:58:46.718Z,34.10
2019-03-31T03:01:18.573Z,34.27
2019-03-31T03:03:51.593Z,38.27
2019-03-31T03:06:24.579Z,36.47
2019-03-31T03:08:57.154Z,35.80
2019-03-31T03:11:30.180Z,36.80
2019-03-31T03:14:03.429Z,34.17
2019-03-31T03:16:34.733Z,39.17
2019-03-31T03:19:06.040Z,37.30
2019-03-31T03:21:37.327Z,36.23
2019-03-31T03:24:08.623Z,39.77
2019-03-31T03:26:39.824Z,34.97
2019-03-31T03:29:11.046Z,33.80
2019-03-31T03:31:42.366Z,35.30
2019-03-31T03:34:13.540Z,32.37
2019-03-31T03:36:44.836Z,34.47
2019-03-31T03:39:16.191Z,33.53
2019-03-31T03:41:47.508Z,34.17
2019-03-31T03:44:18.785Z,33.30
2019-03-31T03:46:50.061Z,32.17
2019-03-31T03:49:21.402Z,32.60
2019-03-31T03:51:52.683Z,34.03
2019-03-31T03:54:24.012Z,31.80
2019-03-31T03:56:55.296Z,32.97
2019-03-31T03:59:26.654Z,33.57
2019-03-31T04:01:57.980Z,36.23
2019-03-31T04:04:29.256Z,33.53
2019-03-31T04:07:00.562Z,33.07
2019-03-31T04:09:31.810Z,33.30
2019-03-31T04:12:03.017Z,38.63
2019-03-31T04:14:34.323Z,30.57
2019-03-31T04:17:05.637Z,33.27
2019-03-31T04:19:36.977Z,34.83
2019-03-31T04:22:08.232Z,33.13
2019-03-31T04:24:39.562Z,33.90
2019-03-31T04:27:10.825Z,31.57
2019-03-31T04:29:42.130Z,33.40
2019-03-31T04:32:13.451Z,33.93
2019-03-31T04:34:44.774Z,33.33
2019-03-31T04:37:16.080Z,34.97
2019-03-31T04:39:47.287Z,29.07
2019-03-31T04:42:18.472Z,34.83
2019-03-31T04:44:49.741Z,33.30
2019-03-31T04:47:22.145Z,27.63
2019-03-31T04:49:53.371Z,33.60
2019-03-31T04:52:24.688Z,35.67
2019-03-31T04:54:55.975Z,35.43
2019-03-31T04:57:27.282Z,39.27
2019-03-31T04:59:59.138Z,36.60
2019-03-31T05:02:30.344Z,31.97
2019-03-31T05:05:01.640Z,33.20
2019-03-31T05:07:32.956Z,34.27
2019-03-31T05:10:04.644Z,33.47
2019-03-31T05:12:35.850Z,32.07
2019-03-31T05:15:07.237Z,34.33
2019-03-31T05:17:38.542Z,32.40
2019-03-31T05:20:10.176Z,34.43
2019-03-31T05:22:41.468Z,31.63
2019-03-31T05:25:12.742Z,28.80
2019-03-31T05:27:43.988Z,32.60
2019-03-31T05:30:15.235Z,30.50
2019-03-31T05:32:46.514Z,36.23
2019-03-31T05:35:17.799Z,36.83
2019-03-31T05:37:51.234Z,42.97
2019-03-31T05:40:21.943Z,33.83
2019-03-31T05:42:53.307Z,31.20
2019-03-31T05:45:24.748Z,28.80
2019-03-31T05:47:55.989Z,31.17
2019-03-31T05:50:27.277Z,30.97
2019-03-31T05:52:58.522Z,29.00
2019-03-31T05:55:29.890Z,28.27
2019-03-31T05:58:01.189Z,33.13
2019-03-31T06:00:38.724Z,31.83
2019-03-31T06:03:10.000Z,28.63
2019-03-31T06:05:41.326Z,27.40
2019-03-31T06:08:12.602Z,30.20
2019-03-31T06:10:43.899Z,28.40
2019-03-31T06:13:15.195Z,25.43
2019-03-31T06:15:46.542Z,26.27
2019-03-31T06:18:17.783Z,26.53
2019-03-31T06:20:49.105Z,28.50
2019-03-31T06:23:20.402Z,27.80
2019-03-31T06:25:51.648Z,25.10
2019-03-31T06:28:22.875Z,22.40
2019-03-31T06:30:54.232Z,24.87
2019-03-31T06:33:25.517Z,26.43
2019-03-31T06:35:56.854Z,23.47
2019-03-31T06:38:28.090Z,24.67
2019-03-31T06:40:59.348Z,24.00
2019-03-31T06:43:30.697Z,27.10
2019-03-31T06:46:01.950Z,22.83
2019-03-31T06:48:33.266Z,24.37
2019-03-31T06:51:04.509Z,29.90
2019-03-31T06:53:35.769Z,28.50
2019-03-31T06:56:07.115Z,31.67
2019-03-31T06:58:38.475Z,32.53
2019-03-31T07:01:09.769Z,28.33
2019-03-31T07:03:41.155Z,25.70
2019-03-31T07:06:12.391Z,29.03
2019-03-31T07:08:43.747Z,30.33
2019-03-31T07:11:15.038Z,26.40
2019-03-31T07:13:46.279Z,25.73
2019-03-31T07:16:17.586Z,28.17
2019-03-31T07:18:48.872Z,25.87
2019-03-31T07:21:20.161Z,24.63
2019-03-31T07:23:51.465Z,28.87
2019-03-31T07:26:22.752Z,28.40
2019-03-31T07:28:54.070Z,29.63
2019-03-31T07:31:25.465Z,29.13
2019-03-31T07:33:56.845Z,27.73
2019-03-31T07:36:28.174Z,25.50
2019-03-31T07:38:59.535Z,29.92
2019-03-31T07:41:31.065Z,28.42
2019-03-31T07:44:02.520Z,27.67
2019-03-31T07:46:33.863Z,25.48
2019-03-31T07:49:06.050Z,26.07
2019-03-31T07:51:37.644Z,24.77
2019-03-31T07:54:09.084Z,25.83
2019-03-31T07:56:40.496Z,26.47
2019-03-31T07:59:11.925Z,25.90
2019-03-31T08:01:44.554Z,24.83
2019-03-31T08:04:16.142Z,24.53
2019-03-31T08:06:47.721Z,26.90
2019-03-31T08:09:19.064Z,27.13
2019-03-31T08:11:50.312Z,24.60
2019-03-31T08:14:21.646Z,22.50
2019-03-31T08:16:52.982Z,20.92
2019-03-31T08:19:24.313Z,20.30
2019-03-31T08:21:55.604Z,22.15
2019-03-31T08:24:26.962Z,24.45
2019-03-31T08:26:58.157Z,20.82
2019-03-31T08:29:31.935Z,22.58
2019-03-31T08:32:03.225Z,21.27
2019-03-31T08:34:34.591Z,22.02
2019-03-31T08:37:05.864Z,20.53
2019-03-31T08:39:37.233Z,21.75
2019-03-31T08:42:08.638Z,20.37
2019-03-31T08:44:39.953Z,18.27
2019-03-31T08:47:11.239Z,21.42
2019-03-31T08:49:42.576Z,22.05
2019-03-31T08:52:13.963Z,20.27
2019-03-31T08:54:45.301Z,23.40
2019-03-31T08:57:16.635Z,21.93
2019-03-31T08:59:47.993Z,25.63
2019-03-31T09:02:24.460Z,20.37
2019-03-31T09:04:55.965Z,21.97
2019-03-31T09:07:27.156Z,21.83
2019-03-31T09:09:58.519Z,24.97
2019-03-31T09:12:29.856Z,22.90
2019-03-31T09:15:01.213Z,24.00
2019-03-31T09:17:32.508Z,23.60
2019-03-31T09:20:03.815Z,25.85
2019-03-31T09:22:35.167Z,27.80
2019-03-31T09:25:06.859Z,29.55
2019-03-31T09:27:38.155Z,25.10
2019-03-31T09:30:12.701Z,27.90
2019-03-31T09:32:44.002Z,24.77
2019-03-31T09:35:15.539Z,24.37
2019-03-31T09:37:46.852Z,28.02
2019-03-31T09:40:18.547Z,23.35
2019-03-31T09:42:49.714Z,22.50
2019-03-31T09:45:21.206Z,26.23
2019-03-31T09:47:52.367Z,18.50
2019-03-31T09:50:23.805Z,21.17
2019-03-31T09:52:55.205Z,17.52
2019-03-31T09:55:26.466Z,20.50
2019-03-31T09:57:57.712Z,19.07
2019-03-31T10:00:44.594Z,27.90
2019-03-31T10:03:16.223Z,23.47
2019-03-31T10:05:48.351Z,24.05
2019-03-31T10:08:21.961Z,27.02
2019-03-31T10:10:52.531Z,26.93
2019-03-31T10:13:23.838Z,28.38
2019-03-31T10:15:55.052Z,29.37
2019-03-31T10:18:26.261Z,27.67
2019-03-31T10:20:57.496Z,25.85
2019-03-31T10:23:28.716Z,27.07
2019-03-31T10:26:00.009Z,25.62
2019-03-31T10:28:31.275Z,28.30
2019-03-31T10:31:02.604Z,28.07
2019-03-31T10:33:33.782Z,25.57
2019-03-31T10:36:05.174Z,26.90
2019-03-31T10:38:36.441Z,26.00
2019-03-31T10:41:07.727Z,33.70
2019-03-31T10:43:39.043Z,28.93
2019-03-31T10:46:10.270Z,30.87
2019-03-31T10:48:41.586Z,26.47
2019-03-31T10:51:12.952Z,26.30
2019-03-31T10:53:44.181Z,26.13
2019-03-31T10:56:15.569Z,28.03
2019-03-31T10:58:46.873Z,26.77
2019-03-31T11:01:18.078Z,29.90
2019-03-31T11:03:49.286Z,32.80
2019-03-31T11:06:20.521Z,27.47
2019-03-31T11:08:51.757Z,28.63
2019-03-31T11:11:23.074Z,24.80
2019-03-31T11:13:54.331Z,30.87
2019-03-31T11:16:25.687Z,29.83
2019-03-31T11:18:56.984Z,27.17
2019-03-31T11:21:36.654Z,33.47
2019-03-31T11:24:07.848Z,28.17
2019-03-31T11:26:39.200Z,29.83
2019-03-31T11:29:10.401Z,26.17
2019-03-31T11:31:41.778Z,29.40
2019-03-31T11:34:13.084Z,24.63
2019-03-31T11:36:44.381Z,29.50
2019-03-31T11:39:16.496Z,29.17
2019-03-31T11:41:49.244Z,27.10
2019-03-31T11:44:20.463Z,27.00
2019-03-31T11:46:51.737Z,24.63
2019-03-31T11:49:23.003Z,28.07
2019-03-31T11:51:54.270Z,30.70
2019-03-31T11:54:25.626Z,26.10
2019-03-31T11:56:56.885Z,25.37
2019-03-31T11:59:28.158Z,24.67
2019-03-31T12:01:59.506Z,26.47
2019-03-31T12:04:30.692Z,25.17
2019-03-31T12:07:01.939Z,23.57
2019-03-31T12:09:33.224Z,24.00
2019-03-31T12:12:04.624Z,21.70
2019-03-31T12:14:35.863Z,24.17
2019-03-31T12:17:07.075Z,23.80
2019-03-31T12:19:38.416Z,21.97
2019-03-31T12:22:09.777Z,22.07
2019-03-31T12:24:41.073Z,19.43
2019-03-31T12:27:12.320Z,19.20
2019-03-31T12:29:43.697Z,23.73
2019-03-31T12:32:14.995Z,24.53
2019-03-31T12:34:46.219Z,22.47
2019-03-31T12:37:17.487Z,25.77
2019-03-31T12:39:48.803Z,20.77
2019-03-31T12:42:20.139Z,23.80
2019-03-31T12:44:51.416Z,22.50
2019-03-31T12:47:22.724Z,20.57
2019-03-31T12:49:53.989Z,16.57
2019-03-31T12:52:25.146Z,17.10
2019-03-31T12:54:56.441Z,20.77
2019-03-31T12:57:27.658Z,18.15
2019-03-31T12:59:58.884Z,18.82
2019-03-31T13:02:30.281Z,16.93
2019-03-31T13:05:01.582Z,17.60
2019-03-31T13:07:32.844Z,16.07
2019-03-31T13:10:04.121Z,19.17
2019-03-31T13:12:35.398Z,19.57
2019-03-31T13:15:07.325Z,23.20
2019-03-31T13:17:38.623Z,20.50
2019-03-31T13:20:10.258Z,25.32
2019-03-31T13:22:41.533Z,22.63
2019-03-31T13:25:13.910Z,25.13
2019-03-31T13:27:45.166Z,31.77
2019-03-31T13:30:16.603Z,27.30
2019-03-31T13:32:47.869Z,27.23
2019-03-31T13:35:20.087Z,25.37
2019-03-31T13:37:51.423Z,25.37
2019-03-31T13:40:22.736Z,15.13
2019-03-31T13:42:53.985Z,15.73
2019-03-31T13:45:25.291Z,14.70
2019-03-31T13:47:58.694Z,15.60
2019-03-31T13:50:29.474Z,16.70
2019-03-31T13:53:00.689Z,15.30
2019-03-31T13:55:32.079Z,15.53
2019-03-31T13:58:03.775Z,20.37
2019-03-31T14:00:41.023Z,16.90
2019-03-31T14:03:12.368Z,15.07
2019-03-31T14:05:43.644Z,12.30
2019-03-31T14:08:25.639Z,13.10
2019-03-31T14:10:47.847Z,11.93
2019-03-31T14:13:19.079Z,7.37
2019-03-31T14:15:50.411Z,20.70
2019-03-31T14:18:21.707Z,12.23
2019-03-31T14:20:53.034Z,13.77
2019-03-31T14:23:24.246Z,21.67
2019-03-31T14:25:55.545Z,25.67
2019-03-31T14:28:26.764Z,21.93
2019-03-31T14:30:58.109Z,23.80
2019-03-31T14:33:29.305Z,22.47
2019-03-31T14:36:00.642Z,32.27
2019-03-31T14:38:40.048Z,37.50
2019-03-31T14:41:04.929Z,40.87
2019-03-31T14:43:36.233Z,44.73
2019-03-31T14:46:07.568Z,46.03
2019-03-31T14:48:38.844Z,44.10
2019-03-31T14:51:10.201Z,48.73
2019-03-31T14:53:41.467Z,48.67
2019-03-31T14:56:12.843Z,56.43
2019-03-31T14:58:44.079Z,43.47
2019-03-31T15:01:15.407Z,41.03
2019-03-31T15:03:46.732Z,38.73
2019-03-31T15:06:18.048Z,33.70
2019-03-31T15:08:54.445Z,32.77
2019-03-31T15:11:22.434Z,31.10
2019-03-31T15:13:53.559Z,32.70
2019-03-31T15:16:30.367Z,32.27
2019-03-31T15:19:01.643Z,35.17
2019-03-31T15:21:32.887Z,35.43
2019-03-31T15:24:04.995Z,37.00
2019-03-31T15:26:36.331Z,31.83
2019-03-31T15:29:07.598Z,38.50
2019-03-31T15:31:38.882Z,44.80
2019-03-31T15:34:10.151Z,53.37
2019-03-31T15:36:41.497Z,52.33
2019-03-31T15:39:13.643Z,57.63
2019-03-31T15:41:44.959Z,54.43
2019-03-31T15:44:16.215Z,56.67
2019-03-31T15:46:47.522Z,49.00
2019-03-31T15:49:18.809Z,53.63
2019-03-31T15:51:50.163Z,49.73
2019-03-31T15:54:21.362Z,46.97
2019-03-31T15:56:52.767Z,46.53
2019-03-31T15:59:24.009Z,52.97
2019-03-31T16:01:55.250Z,56.10
2019-03-31T16:04:26.518Z,64.37
2019-03-31T16:06:57.872Z,66.67
2019-03-31T16:09:28.618Z,70.20
2019-03-31T16:11:59.375Z,67.23
2019-03-31T16:14:30.660Z,67.67
2019-03-31T16:17:01.486Z,60.97
2019-03-31T16:19:32.234Z,64.27
2019-03-31T16:22:02.932Z,58.20
2019-03-31T16:24:39.557Z,61.53
2019-03-31T16:27:10.335Z,57.10
2019-03-31T16:29:40.980Z,65.10
2019-03-31T16:32:11.727Z,57.20
2019-03-31T16:34:42.432Z,64.60
2019-03-31T16:37:13.124Z,60.50
2019-03-31T16:39:44.262Z,59.13
2019-03-31T16:42:15.293Z,62.30
2019-03-31T16:44:57.540Z,57.53
2019-03-31T16:47:18.445Z,53.63
2019-03-31T16:49:49.197Z,54.63
2019-03-31T16:52:19.947Z,53.03
2019-03-31T16:54:50.684Z,56.33
2019-03-31T16:57:21.539Z,52.37
2019-03-31T16:59:52.304Z,53.17
2019-03-31T17:02:23.031Z,53.93
2019-03-31T17:04:53.818Z,52.57
2019-03-31T17:07:24.584Z,48.00
2019-03-31T17:09:55.320Z,47.47
2019-03-31T17:12:26.071Z,48.47
2019-03-31T17:14:56.776Z,51.20
2019-03-31T17:17:27.489Z,47.77
2019-03-31T17:19:58.255Z,53.40
2019-03-31T17:22:28.983Z,46.60
2019-03-31T17:24:59.759Z,46.07
2019-03-31T17:27:30.464Z,47.03
2019-03-31T17:30:01.224Z,43.83
2019-03-31T17:32:32.038Z,42.23
2019-03-31T17:35:02.840Z,44.83
2019-03-31T17:37:33.578Z,40.10
2019-03-31T17:40:06.679Z,42.03
2019-03-31T17:42:37.530Z,38.80
2019-03-31T17:45:08.660Z,42.73
2019-03-31T17:47:39.934Z,45.03
2019-03-31T17:50:10.780Z,41.23
2019-03-31T17:52:41.527Z,42.93
2019-03-31T17:55:12.382Z,44.93
2019-03-31T17:57:43.133Z,39.43
2019-03-31T18:00:14.305Z,38.43
2019-03-31T18:02:45.050Z,38.03
2019-03-31T18:05:15.844Z,41.10
2019-03-31T18:07:46.538Z,33.93
2019-03-31T18:10:21.139Z,40.77
2019-03-31T18:12:49.692Z,36.67
2019-03-31T18:15:20.422Z,36.63
2019-03-31T18:17:51.129Z,34.20
2019-03-31T18:20:21.933Z,31.67
2019-03-31T18:22:52.701Z,33.47
2019-03-31T18:25:23.558Z,37.63
2019-03-31T18:27:54.254Z,33.13
2019-03-31T18:30:25.010Z,32.70
2019-03-31T18:32:55.726Z,37.77
2019-03-31T18:35:26.491Z,30.93
2019-03-31T18:37:57.179Z,35.80
2019-03-31T18:40:34.845Z,30.77
2019-03-31T18:43:00.360Z,31.10
2019-03-31T18:45:31.077Z,33.63
2019-03-31T18:48:01.817Z,32.20
2019-03-31T18:50:32.510Z,29.70
2019-03-31T18:53:04.016Z,32.80
2019-03-31T18:55:43.815Z,33.20
2019-03-31T18:58:39.327Z,29.17
2019-03-31T19:01:31.048Z,27.33
2019-03-31T19:04:26.773Z,30.67
2019-03-31T19:07:15.339Z,26.27
2019-03-31T19:10:04.962Z,28.53
2019-03-31T19:13:05.147Z,29.70
2019-03-31T19:15:53.916Z,28.83
2019-03-31T19:18:43.607Z,30.97
2019-03-31T19:21:32.237Z,26.67
2019-03-31T19:24:24.748Z,28.80
2019-03-31T19:27:17.510Z,28.57
2019-03-31T19:30:15.441Z,31.80
2019-03-31T19:33:11.015Z,27.30
2019-03-31T19:35:57.955Z,29.77
2019-03-31T19:38:46.585Z,28.70
2019-03-31T19:41:27.254Z,26.37
2019-03-31T19:44:16.924Z,25.97
2019-03-31T19:47:10.049Z,27.90
2019-03-31T19:49:57.927Z,23.40
2019-03-31T19:52:46.628Z,23.67
2019-03-31T19:55:36.969Z,24.83
2019-03-31T19:58:18.577Z,25.63
2019-03-31T20:01:08.238Z,23.07
2019-03-31T20:03:56.589Z,26.47
2019-03-31T20:06:49.149Z,22.90
2019-03-31T20:09:31.768Z,24.80
2019-03-31T20:12:20.309Z,22.37
2019-03-31T20:15:05.219Z,21.03
2019-03-31T20:17:55.090Z,22.57
2019-03-31T20:20:41.159Z,25.73
2019-03-31T20:23:31.020Z,20.90
2019-03-31T20:26:35.775Z,20.33
2019-03-31T20:29:21.594Z,22.87
2019-03-31T20:32:10.335Z,16.37
2019-03-31T20:34:46.603Z,20.80
2019-03-31T20:37:36.223Z,21.33
2019-03-31T20:40:25.954Z,19.30
2019-03-31T20:43:31.019Z,20.23
2019-03-31T20:46:04.282Z,18.93
2019-03-31T20:48:34.281Z,18.03
2019-03-31T20:51:06.007Z,18.93
2019-03-31T20:53:37.751Z,25.47
2019-03-31T20:56:08.450Z,16.30
2019-03-31T20:58:39.211Z,15.23
2019-03-31T21:01:10.348Z,20.03
2019-03-31T21:03:41.099Z,15.03
2019-03-31T21:06:11.885Z,16.43
2019-03-31T21:08:42.541Z,17.80
2019-03-31T21:11:14.591Z,17.13
2019-03-31T21:13:45.309Z,17.23
2019-03-31T21:16:16.090Z,16.30
2019-03-31T21:18:46.832Z,15.00
2019-03-31T21:21:17.586Z,21.77
2019-03-31T21:23:48.271Z,15.43
2019-03-31T21:26:18.965Z,16.37
2019-03-31T21:28:49.712Z,16.50
2019-03-31T21:31:20.428Z,15.27
2019-03-31T21:33:51.144Z,15.17
2019-03-31T21:36:21.911Z,14.13
2019-03-31T21:38:52.617Z,16.17
2019-03-31T21:41:23.353Z,17.57
2019-03-31T21:43:54.092Z,12.20
2019-03-31T21:46:24.846Z,12.73
2019-03-31T21:49:14.640Z,15.23
2019-03-31T21:51:45.375Z,14.27
2019-03-31T21:54:16.059Z,16.17
2019-03-31T21:56:46.827Z,12.57
2019-03-31T21:59:17.519Z,14.07
2019-03-31T22:01:48.232Z,13.23
2019-03-31T22:04:18.904Z,11.53
2019-03-31T22:06:49.662Z,13.47
2019-03-31T22:09:20.333Z,16.63
2019-03-31T22:11:51.013Z,12.83
2019-03-31T22:14:21.672Z,14.40
2019-03-31T22:16:52.398Z,12.07
2019-03-31T22:19:23.083Z,13.00
2019-03-31T22:21:53.748Z,14.03
2019-03-31T22:24:24.356Z,16.03
2019-03-31T22:26:55.081Z,15.90
2019-03-31T22:29:25.792Z,15.07
2019-03-31T22:31:56.484Z,12.30
2019-03-31T22:34:27.160Z,15.97
2019-03-31T22:36:57.796Z,13.57
2019-03-31T22:39:28.403Z,15.77
2019-03-31T22:41:59.073Z,14.83
2019-03-31T22:44:30.659Z,14.97
2019-03-31T22:47:01.392Z,15.30
2019-03-31T22:49:32.079Z,15.97
2019-03-31T22:52:02.788Z,14.00
2019-03-31T22:54:33.462Z,14.13
2019-03-31T22:57:04.107Z,11.10
2019-03-31T22:59:34.714Z,13.37
2019-03-31T23:02:05.442Z,17.73
2019-03-31T23:04:36.140Z,14.07
2019-03-31T23:07:06.833Z,16.70
2019-03-31T23:09:37.711Z,13.47
2019-03-31T23:12:08.446Z,19.10
2019-03-31T23:14:39.022Z,15.13
2019-03-31T23:17:09.673Z,14.30
2019-03-31T23:19:40.345Z,12.13
2019-03-31T23:22:10.971Z,13.80
2019-03-31T23:24:41.619Z,15.83
2019-03-31T23:27:12.327Z,16.10
2019-03-31T23:29:43.020Z,15.67
2019-03-31T23:32:13.616Z,17.10
2019-03-31T23:34:44.353Z,14.33
2019-03-31T23:37:14.969Z,20.00
2019-03-31T23:39:45.656Z,16.17
2019-03-31T23:42:16.351Z,16.23
2019-03-31T23:44:47.068Z,13.40
2019-03-31T23:47:17.734Z,20.97
2019-03-31T23:49:48.440Z,14.77
2019-03-31T23:52:19.168Z,15.20
2019-03-31T23:54:49.934Z,14.90
2019-03-31T23:57:22.231Z,17.83
2019-03-31T23:59:53.014Z,15.33
